ADDS TAF Board (Experimental) INFO Settings
IDs: Format: Expanded Condensed

KMCO - Orlando Intl, FL, US

Issued at 0848 UTC 29 Jul 2016
Updated at 1011 UTC 29 Jul 2016
Time0953Z 29/11Z 29/12Z 29/13Z 29/14Z 29/15Z 29/16Z 29/17Z 29/18Z 29/19Z 29/20Z 29/21Z 29/22Z 29/23Z
Type OBS PRVL PRVL PRVL PRVL PRVL PRVL PRVL PRVL PRVL PRVL PRVL PRVL PRVL
VIS 10 >6 >6 >6 >6 >6 >6 >6 >6 >6 >6 >6 >6 >6
CIG -- -- -- -- -- -- -- -- 45 45 45 45 250 250
Cover CLR SCT SCT SCT SCT SCT SCT SCT BKN BKN BKN BKN BKN BKN
FltCat VFR VFR VFR VFR VFR VFR VFR VFR VFR VFR VFR VFR VFR VFR
WX -- -- -- -- -- -- -- -- VCTS VCTS VCTS VCTS -- --
WDir 160 290 290 290 290 290 210 210 170 170 170 170 220 220
WSpd 3 3 3 3 3 3 6 6 8 8 8 8 6 6
WGst -- -- -- -- -- -- -- -- -- -- -- -- -- --
R17/35
XWnd 1 -3 -3 -3 -3 -3 -3 -3 1 1 1 1 -4 -4
HWnd 3 -1 -1 -1 -1 -1 5 5 8 8 8 8 5 5
R18/36
XWnd 1 -3 -3 -3 -3 -3 -3 -3 1 1 1 1 -4 -4
HWnd 3 -1 -1 -1 -1 -1 5 5 8 8 8 8 5 5

Raw TAF
KMCO 290848Z 2909/3006 29003KT P6SM FEW050 SCT250
  FM291600 21006KT P6SM SCT045
  FM291800 17008KT P6SM VCTS BKN045CB
  FM292200 22006KT P6SM SCT050 BKN250


Raw METAR
KMCO 290953Z 16003KT 10SM CLR 25/24 A3004 RMK AO2 SLP169 T02500239
KMCO 290853Z 14003KT 10SM FEW055 25/23 A3003 RMK AO2 SLP168 T02500233 55007
KMCO 290753Z 00000KT 10SM FEW055 26/23 A3003 RMK AO2 SLP167 T02610233

METAR Board
Radar Display
Forecast Discussion

TAF Board Legend

Potential Impact
Threat None Slight Moderate High
Visibility (sm) ≥5.1 5.1>X≥3 3>X≥1 <1
Ceiling (100 ft) ≥30.1 30.1>X≥10 10>X≥5 <5
Wind Speed (kt) <10 10≤X<20 20≤X<30 ≥30
Wind Gust (kt) <15 15≤X<25 25≤X<35 ≥35
Weather No Wx Reported VCTS,-TS,-FZRA,SN TS,FZRA +TS,+FZRA,+SN